createdAt,value
2018-02-21T00:02:17.117Z,31.50
2018-02-21T00:04:44.576Z,30.37
2018-02-21T00:07:12.159Z,33.47
2018-02-21T00:09:39.603Z,28.38
2018-02-21T00:12:07.062Z,31.90
2018-02-21T00:14:34.527Z,28.70
2018-02-21T00:17:01.975Z,28.80
2018-02-21T00:19:29.422Z,28.50
2018-02-21T00:21:56.891Z,29.75
2018-02-21T00:24:24.448Z,30.37
2018-02-21T00:26:51.927Z,28.55
2018-02-21T00:29:19.400Z,27.87
2018-02-21T00:31:46.859Z,28.30
2018-02-21T00:34:14.351Z,28.58
2018-02-21T00:36:41.816Z,30.37
2018-02-21T00:39:09.295Z,29.95
2018-02-21T00:41:36.839Z,27.65
2018-02-21T00:44:04.317Z,28.45
2018-02-21T00:46:31.771Z,29.12
2018-02-21T00:48:59.222Z,29.80
2018-02-21T00:51:26.667Z,28.75
2018-02-21T00:53:54.158Z,27.75
2018-02-21T00:56:21.743Z,29.77
2018-02-21T00:58:49.187Z,27.65
2018-02-21T01:01:16.638Z,30.35
2018-02-21T01:03:44.803Z,30.45
2018-02-21T01:06:12.260Z,32.00
2018-02-21T01:08:39.717Z,28.77
2018-02-21T01:11:07.172Z,29.80
2018-02-21T01:13:34.628Z,30.95
2018-02-21T01:16:02.082Z,31.15
2018-02-21T01:18:29.569Z,29.17
2018-02-21T01:20:57.030Z,30.55
2018-02-21T01:23:24.482Z,33.22
2018-02-21T01:25:51.954Z,32.10
2018-02-21T01:28:19.409Z,34.03
2018-02-21T01:30:46.853Z,31.77
2018-02-21T01:33:14.304Z,32.72
2018-02-21T01:35:41.737Z,30.67
2018-02-21T01:38:09.206Z,34.17
2018-02-21T01:40:36.663Z,31.50
2018-02-21T01:43:04.114Z,32.97
2018-02-21T01:45:31.563Z,29.77
2018-02-21T01:47:59.010Z,32.80
2018-02-21T01:50:26.489Z,32.95
2018-02-21T01:52:53.931Z,33.58
2018-02-21T01:55:21.383Z,31.08
2018-02-21T01:57:48.847Z,30.67
2018-02-21T02:00:16.333Z,32.80
2018-02-21T02:02:43.779Z,29.73
2018-02-21T02:05:11.231Z,32.60
2018-02-21T02:07:38.699Z,31.30
2018-02-21T02:10:06.144Z,32.67
2018-02-21T02:12:33.591Z,32.60
2018-02-21T02:15:01.062Z,33.22
2018-02-21T02:17:28.504Z,33.95
2018-02-21T02:19:55.968Z,29.80
2018-02-21T02:22:23.410Z,33.55
2018-02-21T02:24:50.873Z,32.20
2018-02-21T02:27:18.335Z,33.55
2018-02-21T02:29:45.786Z,32.67
2018-02-21T02:32:13.250Z,34.78
2018-02-21T02:34:40.738Z,35.85
2018-02-21T02:37:08.203Z,31.20
2018-02-21T02:40:07.131Z,32.33
2018-02-21T02:42:34.579Z,32.85
2018-02-21T02:45:02.049Z,33.75
2018-02-21T02:47:29.505Z,31.12
2018-02-21T02:49:56.962Z,30.58
2018-02-21T02:52:24.426Z,32.05
2018-02-21T02:54:51.869Z,32.30
2018-02-21T02:57:19.330Z,29.08
2018-02-21T02:59:46.815Z,33.40
2018-02-21T03:02:14.287Z,30.45
2018-02-21T03:04:41.734Z,27.50
2018-02-21T03:07:09.203Z,32.40
2018-02-21T03:09:36.657Z,30.80
2018-02-21T03:12:04.107Z,30.75
2018-02-21T03:14:31.601Z,32.42
2018-02-21T03:16:59.062Z,28.55
2018-02-21T03:19:26.532Z,31.48
2018-02-21T03:21:54.010Z,31.33
2018-02-21T03:24:21.460Z,31.10
2018-02-21T03:26:48.939Z,33.13
2018-02-21T03:29:16.415Z,31.98
2018-02-21T03:31:44.389Z,30.40
2018-02-21T03:34:11.868Z,34.15
2018-02-21T03:36:39.318Z,32.45
2018-02-21T03:39:06.784Z,32.38
2018-02-21T03:41:34.235Z,33.33
2018-02-21T03:44:01.683Z,32.38
2018-02-21T03:46:29.127Z,31.73
2018-02-21T03:48:56.586Z,31.35
2018-02-21T03:51:24.101Z,31.40
2018-02-21T03:53:51.601Z,34.38
2018-02-21T03:56:19.079Z,32.65
2018-02-21T03:58:46.549Z,29.67
2018-02-21T04:01:14.011Z,34.22
2018-02-21T04:03:41.476Z,34.50
2018-02-21T04:06:08.923Z,31.50
2018-02-21T04:08:36.373Z,32.25
2018-02-21T04:11:03.829Z,31.95
2018-02-21T04:13:31.287Z,31.42
2018-02-21T04:15:58.754Z,30.70
2018-02-21T04:18:26.233Z,32.95
2018-02-21T04:20:53.682Z,34.33
2018-02-21T04:23:21.146Z,33.45
2018-02-21T04:25:48.620Z,33.38
2018-02-21T04:28:16.069Z,34.50
2018-02-21T04:30:43.531Z,34.47
2018-02-21T04:33:11.058Z,34.13
2018-02-21T04:35:38.511Z,32.10
2018-02-21T04:38:05.970Z,32.85
2018-02-21T04:40:33.452Z,33.35
2018-02-21T04:43:00.952Z,32.83
2018-02-21T04:45:28.410Z,35.17
2018-02-21T04:47:55.868Z,32.60
2018-02-21T04:50:24.161Z,30.33
2018-02-21T04:52:51.615Z,35.15
2018-02-21T04:55:21.462Z,31.42
2018-02-21T04:57:54.300Z,33.50
2018-02-21T05:00:32.601Z,30.25
2018-02-21T05:03:00.047Z,31.30
2018-02-21T05:05:27.508Z,31.33
2018-02-21T05:07:54.995Z,28.90
2018-02-21T05:10:22.448Z,30.52
2018-02-21T05:12:49.898Z,31.98
2018-02-21T05:15:17.344Z,29.55
2018-02-21T05:17:44.818Z,30.65
2018-02-21T05:20:12.250Z,30.00
2018-02-21T05:22:39.687Z,30.33
2018-02-21T05:25:07.171Z,30.35
2018-02-21T05:27:34.616Z,29.75
2018-02-21T05:30:02.094Z,32.67
2018-02-21T05:32:29.549Z,31.90
2018-02-21T05:34:57.024Z,30.83
2018-02-21T05:37:24.465Z,34.97
2018-02-21T05:39:51.932Z,33.20
2018-02-21T05:42:19.401Z,33.30
2018-02-21T05:44:46.856Z,32.67
2018-02-21T05:47:14.309Z,34.63
2018-02-21T05:49:41.767Z,30.73
2018-02-21T05:52:09.237Z,31.48
2018-02-21T05:54:36.911Z,33.80
2018-02-21T05:57:04.370Z,34.53
2018-02-21T05:59:31.868Z,33.08
2018-02-21T06:02:00.326Z,36.15
2018-02-21T06:04:27.798Z,36.30
2018-02-21T06:06:55.235Z,37.03
2018-02-21T06:09:22.950Z,38.88
2018-02-21T06:11:50.406Z,37.28
2018-02-21T06:14:17.892Z,38.20
2018-02-21T06:16:45.352Z,36.47
2018-02-21T06:19:12.946Z,39.33
2018-02-21T06:21:40.419Z,38.17
2018-02-21T06:24:07.886Z,37.25
2018-02-21T06:26:35.331Z,40.12
2018-02-21T06:29:02.806Z,37.50
2018-02-21T06:31:30.283Z,38.88
2018-02-21T06:33:57.800Z,37.05
2018-02-21T06:36:25.262Z,42.33
2018-02-21T06:38:52.734Z,43.70
2018-02-21T06:41:20.197Z,47.42
2018-02-21T06:43:47.726Z,43.00
2018-02-21T06:46:15.130Z,41.45
2018-02-21T06:48:42.612Z,38.72
2018-02-21T06:51:10.108Z,41.50
2018-02-21T06:53:37.620Z,39.58
2018-02-21T06:56:05.087Z,42.13
2018-02-21T06:58:32.538Z,41.08
2018-02-21T07:00:59.992Z,39.45
2018-02-21T07:03:27.444Z,43.60
2018-02-21T07:05:54.915Z,44.20
2018-02-21T07:08:22.408Z,40.17
2018-02-21T07:10:49.858Z,43.38
2018-02-21T07:13:17.326Z,47.33
2018-02-21T07:15:44.776Z,43.72
2018-02-21T07:18:12.235Z,43.55
2018-02-21T07:20:39.688Z,43.90
2018-02-21T07:23:07.175Z,43.35
2018-02-21T07:25:34.614Z,43.55
2018-02-21T07:28:02.070Z,44.30
2018-02-21T07:30:29.639Z,41.28
2018-02-21T07:32:57.106Z,45.90
2018-02-21T07:35:24.559Z,44.45
2018-02-21T07:37:52.054Z,42.78
2018-02-21T07:40:19.519Z,44.45
2018-02-21T07:42:47.179Z,45.00
2018-02-21T07:45:14.643Z,42.08
2018-02-21T07:47:42.113Z,44.22
2018-02-21T07:50:09.631Z,45.70
2018-02-21T07:52:38.370Z,42.33
2018-02-21T07:55:05.822Z,41.05
2018-02-21T07:57:33.297Z,40.95
2018-02-21T08:00:00.760Z,40.20
2018-02-21T08:02:28.245Z,42.65
2018-02-21T08:04:55.731Z,44.15
2018-02-21T08:07:23.210Z,43.28
2018-02-21T08:09:50.671Z,48.13
2018-02-21T08:12:18.132Z,45.22
2018-02-21T08:14:45.595Z,42.72
2018-02-21T08:17:13.047Z,44.30
2018-02-21T08:19:40.849Z,39.90
2018-02-21T08:22:08.380Z,43.28
2018-02-21T08:24:36.354Z,39.42
2018-02-21T08:27:03.946Z,43.83
2018-02-21T08:29:31.407Z,45.38
2018-02-21T08:31:59.291Z,44.15
2018-02-21T08:34:26.813Z,41.25
2018-02-21T08:36:56.271Z,43.85
2018-02-21T08:39:23.842Z,44.03
2018-02-21T08:41:51.488Z,41.80
2018-02-21T08:44:18.938Z,42.85
2018-02-21T08:46:46.416Z,44.20
2018-02-21T08:49:13.878Z,46.05
2018-02-21T08:51:41.686Z,43.42
2018-02-21T08:54:09.244Z,48.50
2018-02-21T08:56:36.776Z,43.50
2018-02-21T08:59:04.255Z,42.15
2018-02-21T09:01:31.695Z,40.53
2018-02-21T09:03:59.150Z,41.85
2018-02-21T09:06:26.763Z,41.25
2018-02-21T09:08:54.236Z,41.47
2018-02-21T09:11:21.715Z,40.45
2018-02-21T09:13:49.203Z,45.95
2018-02-21T09:16:16.651Z,46.50
2018-02-21T09:18:44.139Z,43.10
2018-02-21T09:21:11.649Z,41.67
2018-02-21T09:23:39.108Z,43.67
2018-02-21T09:26:06.566Z,45.25
2018-02-21T09:28:34.030Z,54.83
2018-02-21T09:31:01.513Z,47.85
2018-02-21T09:33:28.976Z,43.72
2018-02-21T09:35:56.442Z,42.75
2018-02-21T09:38:23.917Z,41.50
2018-02-21T09:40:51.379Z,45.72
2018-02-21T09:43:18.854Z,43.47
2018-02-21T09:45:46.312Z,44.97
2018-02-21T09:48:13.810Z,45.92
2018-02-21T09:50:41.305Z,46.10
2018-02-21T09:53:08.765Z,41.65
2018-02-21T09:55:36.222Z,43.70
2018-02-21T09:58:03.666Z,47.20
2018-02-21T10:00:31.126Z,41.80
2018-02-21T10:02:58.576Z,41.42
2018-02-21T10:05:26.035Z,45.53
2018-02-21T10:07:53.511Z,45.17
2018-02-21T10:10:20.974Z,45.22
2018-02-21T10:12:48.438Z,44.92
2018-02-21T10:15:15.882Z,42.20
2018-02-21T10:17:43.362Z,43.60
2018-02-21T10:20:10.811Z,42.47
2018-02-21T10:22:38.252Z,44.75
2018-02-21T10:25:05.713Z,41.47
2018-02-21T10:27:33.162Z,49.47
2018-02-21T10:30:00.618Z,43.90
2018-02-21T10:32:28.064Z,44.35
2018-02-21T10:34:55.526Z,43.30
2018-02-21T10:37:22.973Z,42.65
2018-02-21T10:39:50.428Z,43.13
2018-02-21T10:42:17.877Z,43.83
2018-02-21T10:44:45.323Z,40.63
2018-02-21T10:47:12.783Z,45.45
2018-02-21T10:49:40.238Z,45.53
2018-02-21T10:52:07.689Z,41.45
2018-02-21T10:54:35.149Z,44.00
2018-02-21T10:57:02.630Z,42.55
2018-02-21T10:59:30.112Z,42.28
2018-02-21T11:01:57.578Z,40.00
2018-02-21T11:04:25.026Z,44.85
2018-02-21T11:06:52.486Z,45.22
2018-02-21T11:09:19.941Z,45.85
2018-02-21T11:11:47.394Z,48.63
2018-02-21T11:14:14.888Z,44.60
2018-02-21T11:16:42.364Z,46.78
2018-02-21T11:19:09.832Z,45.17
2018-02-21T11:21:37.324Z,47.30
2018-02-21T11:24:05.385Z,46.03
2018-02-21T11:26:32.846Z,46.63
2018-02-21T11:29:00.310Z,48.33
2018-02-21T11:31:27.767Z,47.80
2018-02-21T11:33:55.221Z,47.75
2018-02-21T11:36:22.675Z,43.33
2018-02-21T11:38:50.127Z,46.72
2018-02-21T11:41:17.603Z,47.45
2018-02-21T11:43:45.048Z,44.55
2018-02-21T11:46:12.497Z,42.55
2018-02-21T11:48:39.974Z,41.60
2018-02-21T11:51:07.451Z,38.97
2018-02-21T11:53:34.885Z,38.15
2018-02-21T11:56:02.364Z,39.92
2018-02-21T11:58:29.848Z,38.33
2018-02-21T12:00:57.302Z,38.75
2018-02-21T12:03:24.755Z,38.20
2018-02-21T12:05:52.238Z,38.05
2018-02-21T12:08:19.704Z,39.60
2018-02-21T12:10:47.147Z,38.80
2018-02-21T12:13:15.421Z,40.47
2018-02-21T12:15:42.891Z,40.08
2018-02-21T12:18:10.395Z,38.97
2018-02-21T12:20:37.842Z,39.00
2018-02-21T12:23:05.348Z,39.40
2018-02-21T12:25:32.824Z,36.13
2018-02-21T12:28:00.450Z,36.65
2018-02-21T12:30:27.942Z,38.03
2018-02-21T12:32:56.180Z,39.50
2018-02-21T12:35:23.657Z,42.75
2018-02-21T12:37:51.134Z,41.57
2018-02-21T12:40:24.202Z,40.80
2018-02-21T12:42:51.644Z,40.10
2018-02-21T12:45:19.707Z,40.77
2018-02-21T12:47:47.224Z,40.77
2018-02-21T12:50:14.787Z,39.53
2018-02-21T12:52:42.267Z,41.77
2018-02-21T12:55:21.019Z,38.63
2018-02-21T12:57:51.223Z,39.90
2018-02-21T13:00:18.838Z,39.57
2018-02-21T13:02:46.316Z,40.53
2018-02-21T13:05:22.493Z,40.67
2018-02-21T13:07:49.954Z,43.10
2018-02-21T13:10:17.403Z,39.70
2018-02-21T13:12:44.847Z,43.00
2018-02-21T13:15:12.339Z,44.90
2018-02-21T13:17:39.788Z,46.27
2018-02-21T13:20:07.242Z,45.07
2018-02-21T13:22:34.826Z,45.70
2018-02-21T13:25:02.274Z,44.43
2018-02-21T13:27:29.728Z,43.07
2018-02-21T13:29:57.182Z,44.93
2018-02-21T13:32:24.622Z,47.83
2018-02-21T13:34:52.141Z,43.93
2018-02-21T13:37:19.596Z,45.30
2018-02-21T13:39:47.042Z,43.30
2018-02-21T13:42:14.593Z,44.00
2018-02-21T13:44:42.201Z,45.60
2018-02-21T13:47:09.657Z,47.97
2018-02-21T13:49:37.102Z,44.63
2018-02-21T13:52:04.564Z,41.50
2018-02-21T13:54:32.004Z,43.93
2018-02-21T13:56:59.466Z,44.23
2018-02-21T13:59:26.917Z,42.50
2018-02-21T14:01:54.377Z,43.77
2018-02-21T14:04:21.834Z,43.00
2018-02-21T14:06:49.284Z,42.40
2018-02-21T14:09:16.750Z,42.77
2018-02-21T14:11:44.206Z,45.50
2018-02-21T14:17:14.041Z,41.83
2018-02-21T14:19:41.493Z,44.60
2018-02-21T14:22:09.139Z,43.57
2018-02-21T14:24:36.729Z,42.40
2018-02-21T14:29:56.674Z,45.03
2018-02-21T14:32:24.160Z,44.10
2018-02-21T14:34:51.705Z,42.40
2018-02-21T14:37:19.162Z,42.83
2018-02-21T14:39:46.616Z,40.73
2018-02-21T14:42:14.071Z,42.10
2018-02-21T14:44:41.511Z,42.93
2018-02-21T14:47:08.965Z,43.87
2018-02-21T14:49:36.414Z,42.13
2018-02-21T14:52:03.881Z,40.00
2018-02-21T14:54:31.330Z,44.23
2018-02-21T14:56:58.781Z,42.77
2018-02-21T14:59:26.301Z,41.33
2018-02-21T15:07:38.645Z,41.80
2018-02-21T15:10:06.119Z,44.03
2018-02-21T15:12:33.556Z,42.10
2018-02-21T15:15:01.004Z,42.33
2018-02-21T15:17:28.569Z,43.50
2018-02-21T15:19:56.198Z,42.20
2018-02-21T15:22:23.694Z,43.00
2018-02-21T15:24:51.190Z,40.97
2018-02-21T15:27:18.631Z,40.83
2018-02-21T15:29:46.094Z,39.30
2018-02-21T15:32:14.047Z,40.00
2018-02-21T15:34:41.495Z,40.93
2018-02-21T15:37:08.958Z,39.60
2018-02-21T15:39:36.421Z,37.80
2018-02-21T15:42:03.898Z,38.60
2018-02-21T15:44:31.350Z,39.50
2018-02-21T15:46:58.829Z,40.30
2018-02-21T15:49:26.302Z,37.23
2018-02-21T15:51:53.744Z,38.17
2018-02-21T15:54:21.186Z,38.77
2018-02-21T15:56:48.631Z,41.20
2018-02-21T15:59:16.089Z,38.03
2018-02-21T16:01:43.581Z,37.90
2018-02-21T16:04:11.029Z,36.47
2018-02-21T16:06:38.488Z,40.47
2018-02-21T16:09:05.938Z,37.27
2018-02-21T16:11:33.370Z,38.97
2018-02-21T16:14:00.900Z,34.60
2018-02-21T16:16:28.392Z,38.55
2018-02-21T16:18:55.881Z,37.33
2018-02-21T16:21:23.350Z,35.78
2018-02-21T16:23:50.794Z,33.63
2018-02-21T16:26:18.251Z,34.30
2018-02-21T16:28:45.714Z,36.10
2018-02-21T16:31:13.184Z,32.85
2018-02-21T16:33:40.759Z,33.92
2018-02-21T16:36:08.206Z,33.97
2018-02-21T16:38:35.670Z,31.08
2018-02-21T16:41:03.153Z,33.63
2018-02-21T16:43:30.609Z,33.92
2018-02-21T16:45:58.064Z,34.13
2018-02-21T16:48:25.582Z,31.23
2018-02-21T16:50:53.081Z,34.58
2018-02-21T16:53:20.522Z,35.67
2018-02-21T16:55:47.961Z,35.05
2018-02-21T16:58:15.421Z,34.58
2018-02-21T17:00:42.867Z,28.38
2018-02-21T17:03:10.918Z,29.75
2018-02-21T17:05:38.361Z,30.83
2018-02-21T17:08:05.848Z,29.33
2018-02-21T17:10:33.306Z,30.00
2018-02-21T17:13:01.705Z,31.67
2018-02-21T17:15:29.155Z,30.95
2018-02-21T17:17:56.630Z,30.48
2018-02-21T17:20:24.138Z,31.33
2018-02-21T17:22:51.557Z,29.65
2018-02-21T17:25:19.022Z,30.35
2018-02-21T17:27:46.500Z,30.75
2018-02-21T17:30:14.109Z,29.77
2018-02-21T17:32:42.069Z,28.67
2018-02-21T17:35:09.698Z,31.45
2018-02-21T17:37:37.241Z,31.87
2018-02-21T17:45:50.884Z,28.70
2018-02-21T17:48:19.562Z,29.60
2018-02-21T17:50:47.675Z,27.83
2018-02-21T17:53:16.435Z,33.17
2018-02-21T17:55:45.582Z,29.20
2018-02-21T17:58:14.613Z,28.15
2018-02-21T18:00:43.346Z,28.60
2018-02-21T18:03:11.860Z,26.60
2018-02-21T18:05:40.972Z,26.35
2018-02-21T18:08:09.912Z,24.23
2018-02-21T18:10:38.353Z,26.67
2018-02-21T18:13:06.474Z,23.50
2018-02-21T18:15:35.041Z,24.12
2018-02-21T18:18:03.666Z,24.55
2018-02-21T18:20:32.359Z,21.52
2018-02-21T18:22:59.956Z,22.45
2018-02-21T18:25:27.420Z,21.77
2018-02-21T18:27:54.911Z,22.60
2018-02-21T18:30:22.537Z,21.35
2018-02-21T18:32:49.973Z,21.58
2018-02-21T18:35:17.460Z,22.58
2018-02-21T18:37:44.962Z,23.05
2018-02-21T18:40:12.418Z,22.17
2018-02-21T18:42:39.894Z,22.45
2018-02-21T18:45:07.344Z,22.83
2018-02-21T18:47:34.858Z,20.67
2018-02-21T18:50:02.446Z,23.25
2018-02-21T18:52:29.958Z,19.73
2018-02-21T18:54:57.705Z,21.83
2018-02-21T18:57:25.255Z,23.62
2018-02-21T18:59:52.726Z,20.27
2018-02-21T19:05:26.983Z,19.80
2018-02-21T19:07:54.437Z,25.73
2018-02-21T19:10:21.908Z,25.08
2018-02-21T19:12:59.662Z,21.83
2018-02-21T19:18:19.893Z,23.15
2018-02-21T19:20:47.461Z,22.02
2018-02-21T19:23:15.087Z,22.27
2018-02-21T19:25:44.238Z,22.62
2018-02-21T19:28:12.868Z,23.50
2018-02-21T19:30:40.594Z,22.45
2018-02-21T19:33:08.151Z,22.67
2018-02-21T19:35:36.420Z,22.95
2018-02-21T19:38:04.241Z,24.75
2018-02-21T19:40:34.722Z,22.98
2018-02-21T19:43:03.613Z,23.83
2018-02-21T19:45:31.111Z,24.65
2018-02-21T19:47:59.680Z,24.55
2018-02-21T19:50:28.066Z,25.55
2018-02-21T19:52:57.092Z,22.17
2018-02-21T19:55:25.447Z,23.20
2018-02-21T19:57:54.480Z,24.25
2018-02-21T20:00:23.386Z,25.02
2018-02-21T20:02:52.433Z,24.23
2018-02-21T20:05:21.377Z,23.70
2018-02-21T20:07:50.163Z,25.45
2018-02-21T20:10:18.783Z,22.55
2018-02-21T20:12:47.928Z,25.25
2018-02-21T20:15:17.057Z,25.48
2018-02-21T20:17:45.607Z,24.52
2018-02-21T20:20:14.619Z,25.00
2018-02-21T20:22:43.857Z,24.12
2018-02-21T20:25:13.324Z,25.70
2018-02-21T20:27:42.418Z,23.75
2018-02-21T20:30:15.696Z,25.02
2018-02-21T20:32:44.890Z,21.02
2018-02-21T20:35:13.515Z,25.58
2018-02-21T20:37:42.496Z,26.45
2018-02-21T20:40:12.014Z,25.10
2018-02-21T20:42:40.822Z,23.50
2018-02-21T20:45:10.216Z,24.58
2018-02-21T20:47:39.320Z,24.12
2018-02-21T20:50:23.053Z,25.25
2018-02-21T20:52:52.401Z,26.12
2018-02-21T20:55:22.269Z,24.00
2018-02-21T20:57:51.202Z,23.30
2018-02-21T21:00:20.437Z,24.73
2018-02-21T21:02:49.330Z,23.45
2018-02-21T21:05:18.709Z,24.98
2018-02-21T21:07:48.685Z,23.40
2018-02-21T21:10:18.504Z,23.85
2018-02-21T21:12:48.515Z,22.17
2018-02-21T21:15:17.268Z,25.20
2018-02-21T21:17:46.276Z,23.58
2018-02-21T21:20:16.737Z,25.77
2018-02-21T21:22:46.024Z,25.25
2018-02-21T21:25:17.457Z,25.35
2018-02-21T21:27:46.394Z,26.45
2018-02-21T21:30:14.918Z,24.92
2018-02-21T21:32:43.309Z,26.95
2018-02-21T21:35:11.051Z,24.30
2018-02-21T21:37:38.513Z,23.40
2018-02-21T21:40:05.994Z,24.55
2018-02-21T21:42:33.438Z,24.17
2018-02-21T21:45:00.890Z,24.95
2018-02-21T21:47:28.343Z,23.80
2018-02-21T21:49:55.808Z,25.12
2018-02-21T21:52:23.310Z,24.83
2018-02-21T21:54:50.774Z,22.42
2018-02-21T21:57:18.231Z,26.25
2018-02-21T21:59:47.172Z,26.27
2018-02-21T22:02:16.198Z,24.52
2018-02-21T22:04:45.729Z,26.23
2018-02-21T22:07:13.682Z,23.45
2018-02-21T22:09:42.159Z,23.23
2018-02-21T22:12:12.562Z,26.23
2018-02-21T22:14:41.348Z,25.35
2018-02-21T22:17:09.643Z,26.00
2018-02-21T22:19:37.146Z,24.25
2018-02-21T22:22:06.423Z,26.80
2018-02-21T22:24:34.242Z,26.10
2018-02-21T22:27:07.673Z,24.20
2018-02-21T22:29:36.793Z,24.60
2018-02-21T22:32:05.884Z,26.23
2018-02-21T22:34:34.708Z,25.65
2018-02-21T22:37:04.101Z,26.73
2018-02-21T22:39:33.718Z,24.27
2018-02-21T22:42:02.778Z,24.42
2018-02-21T22:44:32.162Z,26.45
2018-02-21T22:47:01.420Z,26.80
2018-02-21T22:49:30.704Z,26.30
2018-02-21T22:51:59.511Z,24.60
2018-02-21T22:54:28.559Z,23.60
2018-02-21T22:56:57.631Z,24.65
2018-02-21T22:59:26.874Z,24.87
2018-02-21T23:01:56.167Z,25.23
2018-02-21T23:04:24.895Z,26.75
2018-02-21T23:06:53.728Z,25.85
2018-02-21T23:09:22.792Z,22.17
2018-02-21T23:11:51.456Z,26.05
2018-02-21T23:14:20.513Z,25.62
2018-02-21T23:16:49.015Z,25.20
2018-02-21T23:19:19.461Z,25.12
2018-02-21T23:21:49.062Z,24.30
2018-02-21T23:24:18.264Z,24.35
2018-02-21T23:26:47.610Z,26.55
2018-02-21T23:29:16.919Z,25.50
2018-02-21T23:31:45.926Z,24.75
2018-02-21T23:34:15.089Z,24.37
2018-02-21T23:36:44.372Z,25.20
2018-02-21T23:39:17.608Z,25.10
2018-02-21T23:41:46.321Z,25.83
2018-02-21T23:44:15.351Z,26.48
2018-02-21T23:46:44.832Z,24.35
2018-02-21T23:49:14.200Z,26.37
2018-02-21T23:51:43.524Z,25.73
2018-02-21T23:54:12.093Z,24.17
2018-02-21T23:56:41.410Z,23.60
2018-02-21T23:59:10.188Z,23.50
